Time;durP1;ratioP1;P1;durP2;ratioP2;P2;SDS_P1;SDS_P2;PMS_P1;PMS_P2;Temp;Humidity;BMP_temperature;BMP_pressure;BME280_temperature;BME280_humidity;BME280_pressure;Samples;Min_cycle;Max_cycle;Signal;HPM_P1;HPM_P2
2022/08/31 00:09:34;;;;;;;7.43;4.80;;;17.90;58.60;;;;;;2617003;54;20402;-77
2022/08/31 00:15:23;;;;;;;5.30;5.00;;;17.90;62.70;;;;;;2617215;54;21075;-76
2022/08/31 00:21:11;;;;;;;4.70;4.40;;;17.80;70.30;;;;;;2617502;54;20519;-77
2022/08/31 00:37:24;;;;;;;4.57;4.27;;;17.70;91.40;;;;;;2616334;31;20891;-80
2022/08/31 00:49:55;;;;;;;4.53;4.23;;;17.60;97.50;;;;;;2616734;54;20394;-81
2022/08/31 00:55:42;;;;;;;4.57;4.17;;;17.50;99.90;;;;;;2617185;54;20141;-81
2022/08/31 01:01:29;;;;;;;5.03;4.63;;;17.50;99.90;;;;;;2615680;54;20229;-78
2022/08/31 01:07:17;;;;;;;5.00;4.47;;;17.50;99.90;;;;;;2616153;54;20686;-78
2022/08/31 01:13:06;;;;;;;4.50;4.20;;;17.50;99.90;;;;;;2616063;54;20133;-78
2022/08/31 01:18:57;;;;;;;4.83;4.43;;;17.50;99.90;;;;;;2616471;54;20381;-79
2022/08/31 01:24:47;;;;;;;7.23;4.93;;;17.50;99.90;;;;;;2615684;54;20414;-77
2022/08/31 01:30:35;;;;;;;7.30;4.57;;;17.40;99.90;;;;;;2616506;54;20377;-77
2022/08/31 01:36:25;;;;;;;4.90;4.40;;;17.50;99.90;;;;;;2617330;46;20414;-77
2022/08/31 01:42:13;;;;;;;4.50;4.10;;;17.50;99.90;;;;;;2616988;54;20466;-78
2022/08/31 01:48:01;;;;;;;5.63;4.43;;;17.50;99.90;;;;;;2616361;54;20128;-77
2022/08/31 01:53:51;;;;;;;4.50;4.20;;;17.40;99.90;;;;;;2617173;39;20428;-77
2022/08/31 01:59:39;;;;;;;5.33;4.83;;;17.30;99.90;;;;;;2616721;54;20394;-76
2022/08/31 02:05:27;;;;;;;5.30;4.90;;;17.30;99.90;;;;;;2616612;54;20411;-77
2022/08/31 02:11:15;;;;;;;5.30;4.80;;;17.30;99.90;;;;;;2616875;54;20417;-76
2022/08/31 02:17:03;;;;;;;5.23;4.30;;;17.30;99.90;;;;;;2616414;54;20166;-77
2022/08/31 02:22:50;;;;;;;5.10;4.60;;;17.20;99.90;;;;;;2616516;54;20399;-77
2022/08/31 02:32:00;;;;;;;4.57;4.23;;;17.20;99.90;;;;;;2622154;54;20429;-80
2022/08/31 02:37:49;;;;;;;4.03;3.83;;;17.10;99.90;;;;;;2620221;54;20385;-81
2022/08/31 02:43:36;;;;;;;4.80;4.50;;;17.10;99.90;;;;;;2617094;54;20963;-77
2022/08/31 02:49:24;;;;;;;5.30;4.90;;;17.00;99.90;;;;;;2617539;54;20136;-77
2022/08/31 02:55:12;;;;;;;4.43;4.13;;;16.90;99.90;;;;;;2617290;54;20662;-78
2022/08/31 03:01:00;;;;;;;4.37;4.07;;;16.80;99.90;;;;;;2616619;54;20398;-78
2022/08/31 03:06:48;;;;;;;5.07;4.67;;;16.80;99.90;;;;;;2617035;39;20523;-78
2022/08/31 03:12:36;;;;;;;4.43;4.13;;;16.60;99.90;;;;;;2617885;54;20133;-78
2022/08/31 03:18:24;;;;;;;5.53;4.90;;;16.60;99.90;;;;;;2616941;54;20389;-78
2022/08/31 03:24:20;;;;;;;5.20;4.80;;;16.50;99.90;;;;;;2617085;54;20132;-77
2022/08/31 03:27:25;;;;;;;5.30;5.00;;;16.50;99.90;;;;;;2617138;54;20429;-77
2022/08/31 03:29:52;;;;;;;5.30;4.77;;;16.40;99.90;;;;;;2619158;31;20858;-78
2022/08/31 03:35:42;;;;;;;6.87;4.73;;;16.40;99.90;;;;;;2616724;54;20356;-77
2022/08/31 03:41:31;;;;;;;5.47;4.97;;;16.40;99.90;;;;;;2617993;54;20385;-75
2022/08/31 03:47:19;;;;;;;4.80;4.40;;;16.40;99.90;;;;;;2616856;54;20401;-76
2022/08/31 03:53:08;;;;;;;4.93;4.63;;;16.40;99.90;;;;;;2617190;54;20384;-77
2022/08/31 03:58:56;;;;;;;8.50;5.03;;;16.50;99.90;;;;;;2617070;54;20368;-76
2022/08/31 04:04:49;;;;;;;5.47;4.67;;;16.50;99.90;;;;;;2617709;54;20123;-78
2022/08/31 04:10:41;;;;;;;5.23;4.90;;;16.50;99.90;;;;;;2617199;54;20393;-79
2022/08/31 04:16:32;;;;;;;5.53;5.13;;;16.40;99.90;;;;;;2616397;54;20969;-78
2022/08/31 04:22:19;;;;;;;5.60;5.10;;;16.30;99.90;;;;;;2617861;54;20407;-79
2022/08/31 04:31:54;;;;;;;5.10;4.70;;;16.10;99.90;;;;;;2616808;54;20400;-78
2022/08/31 04:37:42;;;;;;;5.27;4.87;;;16.00;99.90;;;;;;2616934;54;20453;-77
2022/08/31 04:43:30;;;;;;;5.80;5.23;;;15.90;99.90;;;;;;2617131;54;20177;-77
2022/08/31 04:49:17;;;;;;;5.90;5.50;;;15.90;99.90;;;;;;2615897;54;20136;-78
2022/08/31 04:55:06;;;;;;;9.93;5.70;;;15.80;99.90;;;;;;2616736;54;20150;-78
2022/08/31 05:00:54;;;;;;;5.23;4.93;;;15.70;99.90;;;;;;2616638;54;20408;-77
2022/08/31 05:06:44;;;;;;;5.53;5.13;;;15.70;99.90;;;;;;2617200;54;20152;-78
2022/08/31 05:12:32;;;;;;;6.07;5.50;;;15.70;99.90;;;;;;2616572;54;20369;-78
2022/08/31 05:18:19;;;;;;;8.73;4.63;;;15.70;99.90;;;;;;2616850;39;20534;-78
2022/08/31 05:24:11;;;;;;;5.53;5.13;;;15.80;99.90;;;;;;2617325;54;20155;-79
2022/08/31 05:27:23;;;;;;;6.93;5.53;;;15.70;99.90;;;;;;2616409;54;20564;-79
2022/08/31 05:29:48;;;;;;;7.17;6.60;;;15.80;99.90;;;;;;2616213;54;20579;-78
2022/08/31 05:35:36;;;;;;;4.93;4.63;;;15.80;99.90;;;;;;2616847;54;20168;-77
2022/08/31 05:38:39;;;;;;;9.87;6.00;;;15.80;99.90;;;;;;2616446;51;20425;-78
2022/08/31 05:41:06;;;;;;;5.43;5.03;;;15.90;99.90;;;;;;2617870;54;20164;-78
2022/08/31 05:46:53;;;;;;;5.30;4.90;;;16.00;99.90;;;;;;2616304;54;20493;-80
2022/08/31 05:52:41;;;;;;;6.93;6.33;;;16.10;99.90;;;;;;2614245;54;20184;-79
2022/08/31 05:58:30;;;;;;;5.30;4.90;;;16.40;99.90;;;;;;2615862;54;20691;-79
2022/08/31 06:04:17;;;;;;;6.20;5.60;;;16.60;99.90;;;;;;2616177;54;20543;-77
2022/08/31 06:10:06;;;;;;;7.50;6.87;;;16.70;99.90;;;;;;2613188;54;20160;-78
2022/08/31 06:15:55;;;;;;;4.87;4.50;;;16.70;99.90;;;;;;2614724;39;20758;-78
2022/08/31 06:21:44;;;;;;;10.30;5.60;;;17.00;99.90;;;;;;2615827;54;20412;-78
2022/08/31 06:34:17;;;;;;;5.90;5.30;;;18.60;93.40;;;;;;2615824;54;20398;-78
2022/08/31 06:40:06;;;;;;;5.30;5.00;;;19.30;82.10;;;;;;2615861;54;20415;-78
2022/08/31 06:45:56;;;;;;;5.60;4.90;;;19.20;83.80;;;;;;2614981;54;20445;-78
2022/08/31 06:51:44;;;;;;;5.60;5.20;;;18.70;88.80;;;;;;2614132;54;20430;-79
2022/08/31 06:57:33;;;;;;;9.90;4.70;;;18.50;92.10;;;;;;2616707;54;20410;-77
2022/08/31 07:03:23;;;;;;;9.07;5.70;;;19.10;86.60;;;;;;2616875;54;20382;-78
2022/08/31 07:09:16;;;;;;;5.43;5.03;;;18.70;91.80;;;;;;2615737;54;20393;-79
2022/08/31 07:15:05;;;;;;;6.80;6.20;;;18.80;91.40;;;;;;2615605;54;20385;-78
2022/08/31 07:20:52;;;;;;;6.17;5.67;;;19.30;84.20;;;;;;2616286;54;20395;-78
2022/08/31 07:26:44;;;;;;;5.80;5.30;;;20.40;64.70;;;;;;2617232;54;20675;-79
2022/08/31 07:32:31;;;;;;;8.23;5.90;;;20.40;52.80;;;;;;2617129;54;20389;-79
2022/08/31 07:44:26;;;;;;;6.33;5.83;;;19.90;61.70;;;;;;2613871;54;20950;-78
2022/08/31 07:50:15;;;;;;;8.53;5.53;;;19.40;69.40;;;;;;2616141;54;20491;-77
2022/08/31 07:56:03;;;;;;;8.83;5.77;;;19.60;68.60;;;;;;2613914;54;20406;-76
2022/08/31 08:01:54;;;;;;;6.67;5.40;;;19.40;72.60;;;;;;2615301;54;20549;-78
2022/08/31 08:07:42;;;;;;;6.13;5.60;;;19.60;67.00;;;;;;2615736;54;20420;-76
2022/08/31 08:13:31;;;;;;;5.47;5.03;;;20.50;56.90;;;;;;2615924;54;20210;-76
2022/08/31 08:19:19;;;;;;;6.13;5.60;;;20.40;61.30;;;;;;2616338;54;20471;-76
2022/08/31 08:25:08;;;;;;;6.70;6.03;;;20.70;55.40;;;;;;2613520;54;20487;-76
2022/08/31 08:34:22;;;;;;;6.00;5.53;;;19.80;64.40;;;;;;2617018;54;20460;-76
2022/08/31 08:40:31;;;;;;;6.20;5.60;;;20.40;60.40;;;;;;2615987;54;20395;-75
2022/08/31 08:52:49;;;;;;;6.43;6.03;;;22.20;41.70;;;;;;2616402;54;20386;-77
2022/08/31 08:58:42;;;;;;;6.30;5.70;;;22.40;40.40;;;;;;2615531;54;20416;-77
2022/08/31 09:04:33;;;;;;;7.70;7.10;;;23.30;31.40;;;;;;2615388;54;20404;-77
2022/08/31 09:16:58;;;;;;;8.60;8.00;;;22.80;33.30;;;;;;2614208;54;20432;-77
2022/08/31 09:22:50;;;;;;;8.30;7.60;;;23.30;29.30;;;;;;2615983;54;20414;-77
2022/08/31 09:28:45;;;;;;;8.30;7.50;;;23.80;27.80;;;;;;2615865;54;20395;-77
2022/08/31 09:34:36;;;;;;;8.00;7.50;;;24.00;25.80;;;;;;2616088;54;20432;-77
2022/08/31 09:37:49;;;;;;;7.60;6.90;;;24.00;25.70;;;;;;2614881;47;21026;-76
2022/08/31 09:43:37;;;;;;;7.57;7.07;;;24.30;23.80;;;;;;2615035;54;20545;-77
2022/08/31 10:02:36;;;;;;;7.43;6.83;;;24.80;24.00;;;;;;2614362;54;20379;-77
2022/08/31 10:12:59;;;;;;;7.63;7.10;;;25.20;21.80;;;;;;2613396;54;20527;-77
2022/08/31 10:31:48;;;;;;;9.70;8.47;;;25.30;20.10;;;;;;2613555;54;20414;-78
2022/08/31 10:37:56;;;;;;;9.77;7.37;;;25.60;18.80;;;;;;2614184;54;20395;-77
2022/08/31 10:43:50;;;;;;;12.90;7.17;;;24.30;20.70;;;;;;2615185;54;20387;-77
2022/08/31 10:49:38;;;;;;;9.47;7.47;;;25.20;21.70;;;;;;2615874;54;20912;-77
2022/08/31 11:02:15;;;;;;;6.93;6.43;;;25.80;17.50;;;;;;2615718;54;20427;-77
2022/08/31 11:08:34;;;;;;;7.87;7.27;;;25.60;18.40;;;;;;2615633;54;20388;-77
2022/08/31 11:37:45;;;;;;;8.40;7.67;;;25.00;18.10;;;;;;2615942;54;20375;-77
2022/08/31 11:43:32;;;;;;;7.70;7.10;;;27.10;12.60;;;;;;2615619;39;20752;-77
2022/08/31 11:49:43;;;;;;;7.83;7.33;;;27.60;10.90;;;;;;2617129;54;20125;-76
2022/08/31 11:55:50;;;;;;;8.33;7.73;;;27.10;11.50;;;;;;2616501;54;20418;-80
2022/08/31 12:01:42;;;;;;;8.10;7.40;;;26.50;13.10;;;;;;2617047;54;21027;-80
2022/08/31 12:20:31;;;;;;;8.83;8.07;;;27.40;10.40;;;;;;2617156;39;20902;-77
2022/08/31 12:33:18;;;;;;;8.03;7.43;;;27.60;8.70;;;;;;2616366;54;20402;-76
2022/08/31 12:45:35;;;;;;;8.90;7.23;;;26.90;10.20;;;;;;2616258;54;20412;-77
2022/08/31 13:04:44;;;;;;;7.43;6.93;;;26.90;8.70;;;;;;2616372;54;20397;-76
2022/08/31 13:10:38;;;;;;;7.57;6.87;;;27.70;7.60;;;;;;2616929;54;20404;-78
2022/08/31 13:16:26;;;;;;;7.53;6.93;;;28.40;5.80;;;;;;2616883;54;20392;-78
2022/08/31 13:28:56;;;;;;;7.37;6.73;;;28.40;5.70;;;;;;2614882;54;20398;-77
2022/08/31 13:38:07;;;;;;;7.67;7.07;;;26.90;6.40;;;;;;2615373;39;21097;-78
2022/08/31 13:44:00;;;;;;;6.83;6.13;;;27.30;4.80;;;;;;2615842;54;20390;-76
2022/08/31 13:49:52;;;;;;;7.53;7.03;;;26.10;7.40;;;;;;2616281;54;20394;-77
2022/08/31 13:55:42;;;;;;;7.43;6.90;;;26.50;7.00;;;;;;2615686;39;20794;-78
2022/08/31 14:01:31;;;;;;;7.47;6.97;;;27.80;4.00;;;;;;2616985;39;20857;-78
2022/08/31 14:07:37;;;;;;;7.20;6.73;;;28.40;3.40;;;;;;2616017;54;20396;-79
2022/08/31 14:13:25;;;;;;;7.00;6.50;;;27.30;3.40;;;;;;2616814;54;20465;-79
2022/08/31 14:32:21;;;;;;;7.87;7.30;;;25.90;3.60;;;;;;2617269;54;20383;-78
2022/08/31 14:38:14;;;;;;;6.90;6.40;;;28.30;2.50;;;;;;2616401;54;20944;-81
2022/08/31 14:44:08;;;;;;;5.93;5.63;;;29.10;1.00;;;;;;2616331;54;20434;-79
2022/08/31 14:50:00;;;;;;;14.20;8.57;;;29.30;1.00;;;;;;2617479;39;20789;-79
2022/08/31 14:55:48;;;;;;;7.43;6.83;;;29.50;1.00;;;;;;2616924;54;20440;-81
2022/08/31 15:01:40;;;;;;;8.40;7.70;;;25.90;2.80;;;;;;2617606;54;20246;-81
2022/08/31 15:07:30;;;;;;;7.47;6.97;;;29.20;1.00;;;;;;2616150;54;20524;-78
2022/08/31 15:13:18;;;;;;;7.13;6.60;;;29.00;1.00;;;;;;2616951;54;20485;-79
2022/08/31 15:19:10;;;;;;;6.93;6.50;;;30.30;1.00;;;;;;2617188;54;20168;-79
2022/08/31 15:25:00;;;;;;;7.37;6.87;;;27.00;1.20;;;;;;2616858;54;20422;-76
2022/08/31 15:30:48;;;;;;;8.20;7.50;;;29.10;1.00;;;;;;2617236;54;20394;-79
2022/08/31 15:33:38;;;;;;;6.43;6.13;;;28.70;1.00;;;;;;2617261;39;20893;-77
2022/08/31 15:36:06;;;;;;;6.60;6.07;;;29.40;1.00;;;;;;2616661;54;20152;-78
2022/08/31 15:41:56;;;;;;;5.83;5.43;;;29.80;1.00;;;;;;2617881;54;20967;-78
2022/08/31 15:53:54;;;;;;;6.53;6.23;;;29.60;1.00;;;;;;2618808;54;20371;-77
2022/08/31 15:59:42;;;;;;;8.10;7.40;;;29.90;1.00;;;;;;2619054;54;20950;-79
2022/08/31 16:05:34;;;;;;;6.40;6.00;;;28.20;1.00;;;;;;2617833;54;20386;-77
2022/08/31 16:11:25;;;;;;;6.40;6.10;;;29.80;1.00;;;;;;2618073;54;20977;-80
2022/08/31 16:17:18;;;;;;;6.00;5.70;;;29.40;1.00;;;;;;2617350;54;20385;-80
2022/08/31 16:23:06;;;;;;;5.77;5.30;;;29.90;1.00;;;;;;2618104;54;20387;-81
2022/08/31 16:28:54;;;;;;;6.13;5.70;;;28.50;1.00;;;;;;2618782;31;20843;-80
2022/08/31 16:38:05;;;;;;;7.17;6.40;;;27.90;1.00;;;;;;2615969;46;20487;-79
2022/08/31 16:43:54;;;;;;;6.97;6.33;;;27.80;1.00;;;;;;2618305;54;20379;-79
2022/08/31 16:49:42;;;;;;;8.17;7.67;;;27.80;1.00;;;;;;2615885;54;20396;-78
2022/08/31 16:55:31;;;;;;;6.90;6.50;;;27.60;1.00;;;;;;2615271;54;20455;-77
2022/08/31 17:01:26;;;;;;;6.97;6.37;;;26.70;1.70;;;;;;2616533;54;20406;-78
2022/08/31 17:07:15;;;;;;;7.00;6.50;;;26.10;2.20;;;;;;2618890;54;20411;-80
2022/08/31 17:13:03;;;;;;;6.77;6.17;;;24.20;3.70;;;;;;2619806;39;20785;-79
2022/08/31 17:18:53;;;;;;;6.17;5.50;;;23.90;4.80;;;;;;2619181;54;20178;-80
2022/08/31 17:24:44;;;;;;;5.97;5.57;;;23.60;5.30;;;;;;2618277;54;20335;-79
2022/08/31 17:30:31;;;;;;;6.50;5.90;;;23.40;5.90;;;;;;2618855;54;20355;-79
2022/08/31 17:33:34;;;;;;;6.20;5.70;;;23.20;5.70;;;;;;2618379;47;20388;-79
2022/08/31 17:36:01;;;;;;;6.80;6.13;;;23.10;5.70;;;;;;2617920;47;20151;-80
2022/08/31 17:39:04;;;;;;;5.93;5.43;;;23.10;6.40;;;;;;2618214;47;20388;-79
2022/08/31 17:41:29;;;;;;;5.53;5.00;;;22.90;6.70;;;;;;2619062;54;20407;-79
2022/08/31 17:47:20;;;;;;;7.10;4.83;;;22.70;6.90;;;;;;2618725;54;20674;-76
2022/08/31 17:53:08;;;;;;;5.83;5.53;;;22.50;8.00;;;;;;2618387;54;20363;-78
2022/08/31 17:58:56;;;;;;;5.43;5.13;;;22.30;7.80;;;;;;2617997;54;20384;-78
2022/08/31 18:04:46;;;;;;;5.80;5.30;;;22.10;8.50;;;;;;2617437;54;20132;-77
2022/08/31 18:10:34;;;;;;;5.60;5.10;;;22.00;8.70;;;;;;2618294;54;20383;-76
2022/08/31 18:16:22;;;;;;;6.40;5.70;;;21.70;9.90;;;;;;2618533;54;20227;-77
2022/08/31 18:22:13;;;;;;;5.53;5.10;;;21.50;9.70;;;;;;2618236;54;20390;-77
2022/08/31 18:28:02;;;;;;;5.30;5.00;;;21.40;9.90;;;;;;2618624;54;20425;-78
2022/08/31 18:38:05;;;;;;;5.87;5.37;;;21.10;11.20;;;;;;2618059;54;20412;-79
2022/08/31 18:50:02;;;;;;;5.47;4.97;;;20.90;11.40;;;;;;2619542;54;20426;-79
2022/08/31 18:55:49;;;;;;;5.50;5.20;;;20.80;11.10;;;;;;2619588;54;20379;-79
2022/08/31 19:01:37;;;;;;;6.37;5.87;;;20.70;10.00;;;;;;2619161;54;20147;-78
2022/08/31 19:07:26;;;;;;;5.33;4.83;;;20.60;9.90;;;;;;2619767;54;20426;-79
2022/08/31 19:13:16;;;;;;;5.23;4.83;;;20.50;9.90;;;;;;2619594;54;20140;-79
2022/08/31 19:19:04;;;;;;;5.90;5.00;;;20.60;9.30;;;;;;2620760;54;20380;-79
2022/08/31 19:24:53;;;;;;;5.13;4.83;;;20.70;9.10;;;;;;2619892;39;20517;-80
2022/08/31 19:30:46;;;;;;;5.23;4.80;;;20.60;7.90;;;;;;2619729;54;20354;-78
2022/08/31 19:33:32;;;;;;;10.73;5.10;;;20.70;8.00;;;;;;2618877;46;20393;-79
2022/08/31 19:39:51;;;;;;;6.70;5.13;;;20.70;7.40;;;;;;2620740;54;20425;-79
2022/08/31 19:45:39;;;;;;;5.60;5.10;;;20.50;7.50;;;;;;2619342;54;20404;-78
2022/08/31 19:51:28;;;;;;;6.50;5.27;;;20.40;7.30;;;;;;2618803;54;20671;-80
2022/08/31 19:57:21;;;;;;;5.83;5.30;;;20.20;7.40;;;;;;2617418;54;20383;-79
2022/08/31 20:03:12;;;;;;;5.20;4.60;;;20.10;7.50;;;;;;2618257;46;20853;-77
2022/08/31 20:09:00;;;;;;;5.13;4.73;;;20.10;7.20;;;;;;2616978;54;20428;-78
2022/08/31 20:14:48;;;;;;;5.67;5.37;;;19.90;7.70;;;;;;2624610;39;20768;-78
2022/08/31 20:20:47;;;;;;;4.80;4.37;;;19.80;7.60;;;;;;2621104;54;20174;-80
2022/08/31 20:26:39;;;;;;;5.00;4.70;;;19.90;7.60;;;;;;2620585;54;20438;-80
2022/08/31 20:32:27;;;;;;;5.10;4.80;;;19.80;7.80;;;;;;2619365;54;20365;-78
2022/08/31 20:35:19;;;;;;;5.40;5.10;;;19.80;7.50;;;;;;2619149;46;20411;-78
2022/08/31 20:37:45;;;;;;;7.80;5.23;;;19.80;7.50;;;;;;2618402;46;20405;-79
2022/08/31 20:43:34;;;;;;;6.00;5.50;;;19.80;7.30;;;;;;2617233;54;20177;-78
2022/08/31 20:49:22;;;;;;;7.87;7.23;;;19.60;8.00;;;;;;2616863;54;20443;-78
2022/08/31 20:55:11;;;;;;;7.70;5.10;;;19.40;7.90;;;;;;2618733;46;20155;-80
2022/08/31 21:01:06;;;;;;;5.60;5.30;;;19.30;8.40;;;;;;2617038;54;20424;-78
2022/08/31 21:06:56;;;;;;;5.83;5.43;;;19.10;9.00;;;;;;2616819;54;20391;-78
2022/08/31 21:12:44;;;;;;;4.93;4.53;;;19.00;9.30;;;;;;2617192;54;20531;-79
2022/08/31 21:18:33;;;;;;;5.80;5.40;;;18.90;9.70;;;;;;2617666;54;20163;-79
2022/08/31 21:24:21;;;;;;;5.90;5.40;;;18.70;9.90;;;;;;2617106;39;20765;-78
2022/08/31 21:30:10;;;;;;;5.40;5.10;;;18.70;10.80;;;;;;2616953;54;20411;-79
2022/08/31 21:39:50;;;;;;;5.27;4.97;;;18.60;10.90;;;;;;2617249;39;20445;-78
2022/08/31 21:45:38;;;;;;;5.37;4.90;;;18.50;11.00;;;;;;2618096;39;20704;-79
2022/08/31 21:58:10;;;;;;;5.73;5.33;;;18.30;11.30;;;;;;2617849;39;20788;-77
2022/08/31 22:03:59;;;;;;;5.70;5.30;;;18.20;11.60;;;;;;2616562;54;20161;-77
2022/08/31 22:09:47;;;;;;;4.90;4.60;;;18.20;11.80;;;;;;2616679;54;20393;-77
2022/08/31 22:15:35;;;;;;;4.77;4.30;;;18.20;11.90;;;;;;2615622;54;20447;-77
2022/08/31 22:21:28;;;;;;;5.17;4.83;;;18.10;12.50;;;;;;2616181;54;20486;-77
2022/08/31 22:27:16;;;;;;;5.37;4.97;;;18.10;12.40;;;;;;2616260;54;20450;-78
2022/08/31 22:33:04;;;;;;;5.70;5.27;;;18.10;12.70;;;;;;2616813;39;20566;-78
2022/08/31 22:38:52;;;;;;;5.43;4.97;;;18.10;12.50;;;;;;2616405;54;20686;-78
2022/08/31 22:44:41;;;;;;;5.10;4.70;;;18.10;12.50;;;;;;2617168;54;20421;-77
2022/08/31 22:50:30;;;;;;;5.17;4.87;;;18.00;12.70;;;;;;2617036;54;20478;-77
2022/08/31 23:02:32;;;;;;;5.10;4.57;;;17.90;13.50;;;;;;2618193;54;20414;-75
2022/08/31 23:08:21;;;;;;;5.50;5.10;;;17.70;14.20;;;;;;2617478;31;20634;-77
2022/08/31 23:14:09;;;;;;;7.97;5.50;;;17.60;14.80;;;;;;2616792;54;20381;-77
2022/08/31 23:17:13;;;;;;;5.47;5.03;;;17.50;15.20;;;;;;2617312;54;20422;-77
2022/08/31 23:19:42;;;;;;;5.40;5.00;;;17.50;15.30;;;;;;2617456;47;20169;-76
2022/08/31 23:25:31;;;;;;;11.80;6.13;;;17.40;15.90;;;;;;2617050;54;20389;-77
2022/08/31 23:31:20;;;;;;;6.53;4.87;;;17.30;16.60;;;;;;2617536;54;20414;-76
2022/08/31 23:40:31;;;;;;;5.40;4.90;;;17.40;16.70;;;;;;2617226;39;20751;-76
2022/08/31 23:46:22;;;;;;;5.30;4.90;;;17.30;17.40;;;;;;2617185;54;20934;-75
2022/08/31 23:52:10;;;;;;;5.17;4.67;;;17.10;19.00;;;;;;2617679;54;20450;-77
2022/08/31 23:58:01;;;;;;;5.20;4.90;;;17.10;18.60;;;;;;2617910;39;20781;-77
